Kanab, UT (84741)

9:56 AM MDT on August 31, 2016 (GMT -0600)
East of town | | Change Station

Elev 5146 ft 37.02 °N, 112.44 °W | Updated 4 seconds ago

Clear
Clear
80.3 °F
Feels Like 79 °F
N
9.0
Wind Variable Wind from East
Gusts 14.0 mph

Today
High -- | Low -- °F
--% Chance of Precip.
Yesterday
High -- | Low -- °F
Precip. -- in
Pressure 29.96 in
Visibility 10.0 miles
Clouds Clear
Heat Index 79 °F
Dew Point 40 °F
Humidity 24%
Rainfall 0.00 in
Snow Depth Not available.
6:58 AM 7:57 PM
Waning Crescent, 1% visible
METAR KPGA 311553Z AUTO 33005KT 10SM CLR 25/03 A3015 RMK AO2 SLP144 T02500033 TSNO
Pressure 29.96 in
Visibility 10.0 miles
Clouds Clear
Heat Index 79 °F
Dew Point 40 °F
Humidity 24%
Rainfall 0.00 in
Snow Depth Not available.
6:58 AM 7:57 PM
Waning Crescent, 1% visible
METAR KPGA 311553Z AUTO 33005KT 10SM CLR 25/03 A3015 RMK AO2 SLP144 T02500033 TSNO

10-Day Weather Forecast

Almanac

Astronomy

Aug. 31, 2016 Rise Set
Actual Time
Civil Twilight
Nautical Twilight
Astronomical Twilight
Moon
Length of Visible Light
Length of Day
Tomorrow will be .
, % of the Moon is Illuminated

Today's Extremes

State Highs State Lows

Community

WunderPhotos

Upload Photos

1,936,098 photos uploaded!

WunderBlog® & News

Nearby

Air Quality

  Air Quality AQ Index Pollutant
Not available.

Snow Depth

Station Depth Elevation

Earthquake Activity

City Distance Mag. Time & Date
Minimum magnitude displayed is 2.5.

Coastal Water Temperatures

Place Temperature

Stations

Nearby Weather Stations

Station Location Temp. Windchill Dew Point Humidity Wind Precip. Elev Updated Type
                   

Watches & Warnings

There are currently no watches in effect.